Time;durP1;ratioP1;P1;durP2;ratioP2;P2;SDS_P1;SDS_P2;PMS_P1;PMS_P2;Temp;Humidity;BMP_temperature;BMP_pressure;BME280_temperature;BME280_humidity;BME280_pressure;Samples;Min_cycle;Max_cycle;Signal;HPM_P1;HPM_P2
2021/11/20 00:04:39;;;;;;;;;;;;;;;10.60;81.60;99914.16;229612;1191;139801;-78
2021/11/20 00:09:47;;;;;;;8.70;4.20;;;;;;;10.56;81.66;99912.29;229486;1192;126077;-80
2021/11/20 00:14:52;;;;;;;3.80;3.30;;;;;;;10.60;81.58;99928.70;229527;1192;140418;-78
2021/11/20 00:20:08;;;;;;;6.30;4.00;;;;;;;10.58;81.35;99921.20;229490;1192;139687;-74
2021/11/20 00:25:41;;;;;;;4.20;3.10;;;;;;;10.62;81.46;99922.30;230067;1192;139344;-73
2021/11/20 00:30:58;;;;;;;8.30;3.60;;;;;;;10.65;81.28;99905.42;230709;1191;141945;-71
2021/11/20 00:36:04;;;;;;;6.70;3.80;;;;;;;10.68;81.23;99889.13;229819;1192;139664;-72
2021/11/20 00:41:21;;;;;;;3.30;2.80;;;;;;;10.69;81.10;99882.70;230730;1192;140735;-71
2021/11/20 00:46:28;;;;;;;3.80;2.90;;;;;;;10.71;81.14;99883.64;230509;1192;139576;-71
2021/11/20 00:51:33;;;;;;;;;;;;;;;10.75;80.82;99864.05;230951;1191;140793;-71
2021/11/20 00:56:38;;;;;;;4.60;2.90;;;;;;;10.71;80.93;99855.38;230539;1192;125822;-70
2021/11/20 01:01:54;;;;;;;5.10;2.90;;;;;;;10.73;80.72;99865.65;230131;1192;140442;-71
2021/11/20 01:07:12;;;;;;;;;;;;;;;;;;;;;
2021/11/20 01:12:32;;;;;;;3.70;2.90;;;;;;;10.68;80.72;99869.77;228576;1192;139624;-74
2021/11/20 01:17:41;;;;;;;4.30;3.50;;;;;;;10.67;80.51;99874.39;228431;1192;138839;-70
2021/11/20 01:22:46;;;;;;;5.40;3.60;;;;;;;10.65;80.95;99874.92;227849;1192;138643;-71
2021/11/20 01:28:14;;;;;;;6.80;3.10;;;;;;;10.66;80.66;99889.08;229348;1192;139773;-77
2021/11/20 01:33:20;;;;;;;5.20;3.10;;;;;;;10.67;80.70;99890.59;229048;1192;139500;-69
2021/11/20 01:38:36;;;;;;;6.20;3.80;;;;;;;10.69;80.81;99888.13;229224;1184;139197;-71
2021/11/20 01:43:48;;;;;;;5.00;3.40;;;;;;;10.72;80.53;99894.37;228285;1192;139891;-69
2021/11/20 01:49:14;;;;;;;5.10;3.10;;;;;;;10.70;80.65;99887.14;228740;1192;138880;-71
2021/11/20 01:54:42;;;;;;;9.50;3.40;;;;;;;10.70;80.47;99892.10;228928;1192;140549;-72
2021/11/20 02:00:00;;;;;;;;;;;;;;;;;;;;;
2021/11/20 02:05:57;;;;;;;6.20;3.10;;;;;;;10.66;80.45;99888.11;229222;1192;139233;-72
2021/11/20 02:11:13;;;;;;;3.30;3.00;;;;;;;10.68;80.51;99898.40;228788;1193;138772;-70
2021/11/20 02:16:26;;;;;;;6.80;3.90;;;;;;;10.67;80.33;99912.36;229300;1192;139881;-71
2021/11/20 02:21:50;;;;;;;3.40;3.10;;;;;;;10.70;80.24;99910.02;228326;1192;139567;-69
2021/11/20 02:26:54;;;;;;;5.20;3.10;;;;;;;10.66;80.31;99912.65;229871;1192;139988;-76
2021/11/20 02:32:07;;;;;;;4.30;2.40;;;;;;;10.68;80.05;99918.88;228599;1192;139514;-76
2021/11/20 02:37:35;;;;;;;4.70;3.40;;;;;;;10.68;80.01;99917.55;228750;1185;139789;-71
2021/11/20 02:42:46;;;;;;;7.00;3.00;;;;;;;10.68;80.02;99933.81;230266;1192;139175;-72
2021/11/20 02:47:58;;;;;;;3.20;2.50;;;;;;;10.72;79.83;99935.44;230467;1192;139457;-72
2021/11/20 02:53:26;;;;;;;2.80;2.60;;;;;;;10.69;79.71;99925.36;230664;1192;140098;-72
2021/11/20 02:58:40;;;;;;;;;;;;;;;;;;;;;
2021/11/20 03:03:46;;;;;;;2.60;2.40;;;;;;;10.77;79.54;99924.73;230563;1192;139473;-70
2021/11/20 03:08:51;;;;;;;3.30;2.30;;;;;;;10.77;79.46;99910.70;229550;1192;139072;-71
2021/11/20 03:13:57;;;;;;;5.60;4.00;;;;;;;10.81;79.28;99913.30;229540;1192;139835;-73
2021/11/20 03:19:02;;;;;;;5.30;3.60;;;;;;;10.80;79.52;99919.05;229844;1191;138952;-73
2021/11/20 03:24:12;;;;;;;6.70;2.50;;;;;;;10.80;79.23;99918.89;228775;1192;140487;-73
2021/11/20 03:29:16;;;;;;;5.00;3.00;;;;;;;10.78;79.20;99919.59;228211;1192;139802;-71
2021/11/20 03:34:44;;;;;;;10.00;3.50;;;;;;;10.73;79.37;99927.09;228825;1192;138455;-74
2021/11/20 03:39:52;;;;;;;4.40;3.10;;;;;;;10.73;79.25;99930.33;228599;1192;140131;-72
2021/11/20 03:44:58;;;;;;;10.10;3.10;;;;;;;10.71;79.09;99936.11;228952;1192;139630;-73
2021/11/20 03:55:16;;;;;;;10.20;3.00;;;;;;;10.70;79.32;99948.04;232013;1209;684471;-73
2021/11/20 04:00:21;;;;;;;7.50;2.90;;;;;;;10.71;79.25;99953.11;226361;1198;139051;-79
2021/11/20 04:05:33;;;;;;;6.30;2.20;;;;;;;10.71;79.17;99949.34;227661;1199;139389;-75
2021/11/20 04:10:41;;;;;;;6.70;2.10;;;;;;;10.71;78.91;99961.48;227006;1199;139938;-71
2021/11/20 04:16:08;;;;;;;4.00;2.30;;;;;;;10.72;78.86;99965.88;227007;1198;139292;-74
2021/11/20 04:21:14;;;;;;;3.50;3.20;;;;;;;10.71;79.04;99973.80;226811;1199;139808;-79
2021/11/20 04:26:19;;;;;;;8.50;3.00;;;;;;;10.70;78.99;99972.83;228300;1190;139027;-76
2021/11/20 04:31:23;;;;;;;4.00;2.40;;;;;;;10.71;78.71;99974.83;228262;1196;220594;-74
2021/11/20 04:36:26;;;;;;;3.30;2.20;;;;;;;10.70;78.69;99983.76;227156;1196;138820;-72
2021/11/20 04:41:29;;;;;;;9.00;6.30;;;;;;;10.70;78.58;99972.30;228856;1196;139956;-73
2021/11/20 04:46:33;;;;;;;5.50;3.30;;;;;;;10.70;78.52;99983.60;229082;1196;138262;-74
2021/11/20 04:51:36;;;;;;;5.80;2.70;;;;;;;10.69;78.48;99993.45;229136;1196;139129;-71
2021/11/20 04:56:39;;;;;;;7.80;2.50;;;;;;;10.71;78.25;99989.27;229286;1195;140515;-74
2021/11/20 05:01:43;;;;;;;6.80;2.80;;;;;;;10.69;78.11;99988.59;229341;1196;138542;-74
2021/11/20 05:06:48;;;;;;;3.10;1.90;;;;;;;10.69;78.06;99991.00;229036;1196;138690;-75
2021/11/20 05:11:52;;;;;;;3.10;2.50;;;;;;;10.65;77.86;99996.77;230130;1193;139507;-74
2021/11/20 05:17:30;;;;;;;3.10;2.10;;;;;;;10.59;77.94;100001.41;230685;1192;138592;-70
2021/11/20 05:22:33;;;;;;;3.30;2.50;;;;;;;10.57;77.63;99998.61;230434;1193;139415;-74
2021/11/20 05:27:36;;;;;;;10.40;3.60;;;;;;;10.52;77.81;100002.37;229896;1193;138987;-73
2021/11/20 05:32:39;;;;;;;4.40;2.10;;;;;;;10.50;77.56;100012.93;229009;1192;139476;-73
2021/11/20 05:37:42;;;;;;;4.40;2.70;;;;;;;10.48;77.65;100015.30;229533;1192;140382;-73
2021/11/20 05:42:54;;;;;;;5.40;2.10;;;;;;;10.40;77.67;100016.67;229075;1192;137883;-74
2021/11/20 05:47:58;;;;;;;4.90;1.90;;;;;;;10.33;77.84;100018.88;228857;1193;138868;-73
2021/11/20 05:53:07;;;;;;;5.90;2.80;;;;;;;10.32;77.85;100028.85;228266;1193;140397;-72
2021/11/20 05:58:27;;;;;;;;;;;;;;;;;;;;;
2021/11/20 06:03:29;;;;;;;4.50;2.30;;;;;;;10.28;78.05;100031.36;228872;1193;140086;-75
2021/11/20 06:08:38;;;;;;;3.40;2.90;;;;;;;10.30;77.69;100036.09;228458;1192;139657;-74
2021/11/20 06:13:41;;;;;;;4.50;3.20;;;;;;;10.29;77.96;100047.14;228299;1193;138612;-73
2021/11/20 06:18:45;;;;;;;3.90;1.90;;;;;;;10.28;77.78;100048.98;228452;1193;141066;-74
2021/11/20 06:23:47;;;;;;;3.50;2.90;;;;;;;10.29;77.71;100049.97;228160;1193;140585;-74
2021/11/20 06:28:54;;;;;;;3.20;2.00;;;;;;;10.25;77.95;100054.77;229859;1192;141241;-70
2021/11/20 06:34:00;;;;;;;3.60;2.20;;;;;;;10.24;77.86;100068.17;228890;1192;139577;-71
2021/11/20 06:39:03;;;;;;;4.80;3.50;;;;;;;10.28;77.87;100079.08;229244;1193;219048;-73
2021/11/20 06:44:07;;;;;;;4.50;2.90;;;;;;;10.27;77.78;100083.89;228534;1194;139695;-74
2021/11/20 06:49:14;;;;;;;4.60;1.60;;;;;;;10.28;77.84;100091.77;229670;1192;138744;-73
2021/11/20 06:54:18;;;;;;;5.90;2.10;;;;;;;10.34;77.84;100103.63;230372;1192;140428;-75
2021/11/20 07:04:29;;;;;;;10.40;2.30;;;;;;;10.46;77.77;100111.77;229774;1192;139031;-74
2021/11/20 07:09:33;;;;;;;5.10;2.90;;;;;;;10.52;77.47;100113.58;230460;1193;139860;-72
2021/11/20 07:14:36;;;;;;;5.30;3.20;;;;;;;10.57;77.73;100118.69;230706;1192;138647;-73
2021/11/20 07:19:42;;;;;;;8.20;3.40;;;;;;;10.68;77.69;100120.26;230049;1192;140320;-73
2021/11/20 07:24:54;;;;;;;6.90;2.80;;;;;;;10.79;77.67;100117.30;229833;1193;142238;-74
2021/11/20 07:29:57;;;;;;;2.60;2.20;;;;;;;10.83;77.73;100125.04;229475;1192;138458;-76
2021/11/20 07:35:28;;;;;;;6.60;3.80;;;;;;;10.87;77.53;100123.35;229625;1192;138747;-72
2021/11/20 07:40:38;;;;;;;20.30;4.00;;;;;;;10.94;77.33;100131.75;229479;1193;139522;-71
2021/11/20 07:45:41;;;;;;;5.20;1.80;;;;;;;10.93;77.33;100137.89;228814;1193;140142;-73
2021/11/20 07:50:47;;;;;;;4.20;2.40;;;;;;;10.99;77.48;100134.42;230107;1193;139217;-76
2021/11/20 07:55:57;;;;;;;5.90;2.40;;;;;;;11.04;77.18;100135.49;229414;1192;139533;-75
2021/11/20 08:01:03;;;;;;;4.90;2.50;;;;;;;11.05;77.22;100129.55;228734;1193;138768;-74
2021/11/20 08:06:07;;;;;;;4.20;2.80;;;;;;;11.12;77.31;100119.56;228256;1193;139733;-71
2021/11/20 08:12:00;;;;;;;;;;;;;;;;;;;;;
2021/11/20 08:17:05;;;;;;;2.70;2.40;;;;;;;11.14;76.96;100127.05;228620;1193;141182;-72
2021/11/20 08:26:35;;;;;;;4.80;2.10;;;;;;;11.13;76.62;100124.32;232088;1209;635610;-73
2021/11/20 08:32:01;;;;;;;3.30;2.30;;;;;;;11.14;76.49;100134.16;228720;1196;138389;-73
2021/11/20 08:37:09;;;;;;;5.20;2.90;;;;;;;11.23;76.62;100131.55;227624;1196;138567;-69
2021/11/20 08:42:15;;;;;;;3.60;2.20;;;;;;;11.29;76.76;100139.30;226736;1196;138450;-71
2021/11/20 08:47:26;;;;;;;8.10;3.30;;;;;;;11.39;76.37;100136.17;227780;1196;138488;-71
2021/11/20 08:52:41;;;;;;;4.50;2.50;;;;;;;11.52;76.38;100146.36;228296;1190;139588;-72
2021/11/20 08:57:45;;;;;;;5.60;3.50;;;;;;;11.63;76.41;100143.58;228360;1196;138722;-72
2021/11/20 09:03:55;;;;;;;3.30;2.60;;;;;;;11.73;76.11;100150.16;226837;1196;139180;-72
2021/11/20 09:09:31;;;;;;;3.90;3.10;;;;;;;11.77;75.67;100154.42;229895;1196;139354;-72
2021/11/20 09:15:05;;;;;;;4.50;2.30;;;;;;;11.82;75.49;100159.00;229408;1196;138366;-73
2021/11/20 09:20:14;;;;;;;5.30;2.60;;;;;;;11.91;75.04;100156.95;228205;1196;139375;-72
2021/11/20 09:25:26;;;;;;;3.90;2.10;;;;;;;11.97;74.91;100151.21;229365;1196;138975;-72
2021/11/20 09:31:00;;;;;;;7.70;3.20;;;;;;;12.02;74.52;100157.31;228584;1196;139309;-74
2021/11/20 09:36:36;;;;;;;3.50;2.70;;;;;;;12.08;74.56;100156.33;228521;1196;139233;-71
2021/11/20 09:42:03;;;;;;;3.10;2.60;;;;;;;12.10;74.50;100158.89;227447;1196;139197;-73
2021/11/20 09:47:18;;;;;;;3.40;3.10;;;;;;;12.10;74.03;100157.29;230339;1190;139588;-73
2021/11/20 09:52:44;;;;;;;7.70;3.30;;;;;;;12.11;73.92;100147.36;230056;1191;139360;-74
2021/11/20 09:58:19;;;;;;;6.20;4.40;;;;;;;12.12;73.94;100143.43;229411;1192;139648;-72
2021/11/20 10:04:43;;;;;;;4.80;2.00;;;;;;;12.13;73.66;100138.33;229436;1192;141807;-73
2021/11/20 10:10:28;;;;;;;3.50;2.10;;;;;;;12.11;73.63;100126.56;230048;1190;139355;-73
2021/11/20 10:15:35;;;;;;;4.80;2.60;;;;;;;12.15;73.46;100122.21;229581;1190;139537;-72
2021/11/20 10:21:09;;;;;;;4.70;1.90;;;;;;;12.17;73.53;100116.49;228840;1190;138472;-73
2021/11/20 10:26:28;;;;;;;5.80;2.60;;;;;;;12.39;73.34;100106.50;229988;1192;139422;-73
2021/11/20 10:31:46;;;;;;;1.70;1.60;;;;;;;12.55;73.21;100100.54;229096;1190;139984;-73
2021/11/20 10:37:16;;;;;;;3.00;1.80;;;;;;;12.56;72.61;100096.88;229858;1192;139725;-74
2021/11/20 10:43:19;;;;;;;4.10;1.90;;;;;;;12.64;72.53;100088.73;230342;1191;140837;-72
2021/11/20 10:48:36;;;;;;;5.10;2.20;;;;;;;12.86;72.48;100093.95;229531;1191;139430;-73
2021/11/20 10:54:05;;;;;;;5.30;1.90;;;;;;;13.06;72.20;100090.83;231123;1190;139986;-75
2021/11/20 10:59:34;;;;;;;2.90;1.80;;;;;;;13.15;71.84;100089.70;230967;1191;139734;-74
2021/11/20 11:05:19;;;;;;;5.70;2.40;;;;;;;13.12;71.59;100091.45;231206;1190;138573;-73
2021/11/20 11:10:38;;;;;;;1.90;1.80;;;;;;;12.97;71.35;100083.39;231146;1191;139727;-74
2021/11/20 11:17:00;;;;;;;2.90;2.50;;;;;;;12.95;71.13;100077.68;230090;1191;155137;-74
2021/11/20 11:23:05;;;;;;;2.60;2.40;;;;;;;12.96;71.32;100063.09;230330;1190;139372;-74
2021/11/20 11:28:30;;;;;;;1.20;1.20;;;;;;;12.81;71.27;100055.25;230713;1191;140062;-75
2021/11/20 11:33:39;;;;;;;3.80;2.80;;;;;;;12.79;70.84;100054.58;230427;1189;140639;-72
2021/11/20 11:39:14;;;;;;;1.80;1.60;;;;;;;12.83;70.80;100050.77;230158;1190;139491;-74
2021/11/20 11:45:43;;;;;;;;;;;;;;;;;;;;;
2021/11/20 11:51:35;;;;;;;2.40;1.80;;;;;;;12.97;71.39;100045.28;229836;1192;139023;-74
2021/11/20 11:57:02;;;;;;;1.90;1.80;;;;;;;13.28;71.34;100040.98;229901;1191;140514;-73
2021/11/20 12:03:18;;;;;;;2.70;2.50;;;;;;;13.29;71.53;100036.34;229791;1192;139403;-74
2021/11/20 12:09:35;;;;;;;3.80;2.10;;;;;;;13.03;71.57;100029.06;229434;1192;138851;-72
2021/11/20 12:14:49;;;;;;;2.80;2.30;;;;;;;12.71;71.76;100032.91;228275;1192;141522;-71
2021/11/20 12:21:15;;;;;;;3.10;2.50;;;;;;;12.50;72.40;100029.06;229776;1191;140334;-75
2021/11/20 12:26:15;;;;;;;2.60;2.00;;;;;;;12.44;72.66;100025.77;229998;1192;139354;-74
2021/11/20 12:32:06;;;;;;;2.20;1.90;;;;;;;12.46;72.83;100019.70;229380;1192;138970;-74
2021/11/20 12:38:08;;;;;;;2.50;2.30;;;;;;;12.34;73.29;100015.14;229850;1191;140216;-73
2021/11/20 12:43:49;;;;;;;4.30;2.60;;;;;;;12.20;73.40;100014.66;227891;1192;139542;-72
2021/11/20 12:49:29;;;;;;;4.70;2.90;;;;;;;12.11;73.63;100006.39;230591;1192;139516;-74
2021/11/20 12:55:25;;;;;;;;;;;;;;;;;;;;;
2021/11/20 13:00:36;;;;;;;3.40;3.10;;;;;;;11.89;74.39;99990.50;230110;1191;139013;-75
2021/11/20 13:05:57;;;;;;;;;;;;;;;;;;;;;
2021/11/20 13:11:31;;;;;;;3.80;3.50;;;;;;;11.75;74.50;99969.67;231003;1191;140385;-75
2021/11/20 13:17:23;;;;;;;2.50;2.20;;;;;;;11.66;74.91;99963.50;230469;1192;140168;-74
2021/11/20 13:23:03;;;;;;;2.30;2.10;;;;;;;11.62;75.10;99955.19;230650;1184;141568;-72
2021/11/20 13:28:10;;;;;;;4.00;3.70;;;;;;;11.63;75.18;99956.45;231037;1191;138525;-71
2021/11/20 13:33:14;;;;;;;3.40;2.60;;;;;;;11.68;75.13;99950.66;230819;1191;139266;-75
2021/11/20 13:38:19;;;;;;;17.10;9.30;;;;;;;11.65;74.95;99943.13;230377;1190;139412;-75
2021/11/20 13:43:54;;;;;;;5.80;4.10;;;;;;;11.64;75.28;99935.90;230388;1191;138742;-73
2021/11/20 13:49:32;;;;;;;;;;;;;;;;;;;;;
2021/11/20 13:54:39;;;;;;;4.00;3.20;;;;;;;11.56;75.32;99933.73;230532;1190;140137;-72
2021/11/20 14:00:41;;;;;;;3.80;3.50;;;;;;;11.51;75.57;99930.52;229821;1191;140126;-71
2021/11/20 14:05:46;;;;;;;3.60;3.30;;;;;;;11.48;75.53;99926.66;229368;1191;139816;-73
2021/11/20 14:11:51;;;;;;;7.00;3.10;;;;;;;11.42;75.78;99924.72;229544;1191;138785;-74
2021/11/20 14:16:49;;;;;;;6.20;4.20;;;;;;;11.33;75.73;99917.48;229120;1190;139848;-71
2021/11/20 14:22:04;;;;;;;5.60;4.70;;;;;;;11.29;76.06;99917.57;229431;1190;139381;-76
2021/11/20 14:27:32;;;;;;;5.30;4.70;;;;;;;11.22;76.04;99913.35;229553;1191;138507;-70
2021/11/20 14:32:36;;;;;;;5.60;4.80;;;;;;;11.16;76.37;99913.34;229266;1192;138861;-75
2021/11/20 14:38:17;;;;;;;5.30;4.90;;;;;;;11.16;76.48;99904.70;230361;1191;140199;-72
2021/11/20 14:43:29;;;;;;;7.70;6.70;;;;;;;11.17;76.55;99905.46;228512;1192;139579;-74
2021/11/20 14:48:44;;;;;;;9.40;7.30;;;;;;;11.12;76.60;99901.29;228704;1190;138295;-72
2021/11/20 14:54:04;;;;;;;;;;;;;;;;;;;;;
2021/11/20 14:59:12;;;;;;;9.70;7.90;;;;;;;11.00;76.95;99895.49;228908;1184;140295;-72
2021/11/20 15:04:28;;;;;;;7.40;4.90;;;;;;;10.95;76.99;99893.09;230388;1190;138892;-77
2021/11/20 15:09:33;;;;;;;7.30;6.10;;;;;;;10.91;77.13;99889.01;230332;1191;140139;-76
2021/11/20 15:15:38;;;;;;;6.70;6.10;;;;;;;10.93;77.16;99882.33;230142;1190;140890;-78
2021/11/20 15:21:05;;;;;;;;;;;;;;;;;;;;;
2021/11/20 15:26:20;;;;;;;;;;;;;;;;;;;;;
2021/11/20 15:31:45;;;;;;;9.40;7.40;;;;;;;10.78;77.57;99873.06;230190;1192;139718;-77
2021/11/20 15:37:41;;;;;;;7.80;6.90;;;;;;;10.69;77.80;99871.34;229752;1191;138948;-74
2021/11/20 15:42:45;;;;;;;8.50;6.60;;;;;;;10.66;77.98;99868.61;229530;1191;139075;-71
2021/11/20 15:47:50;;;;;;;8.20;7.10;;;;;;;10.70;77.99;99864.36;229605;1191;139023;-72
2021/11/20 15:53:22;;;;;;;11.50;8.60;;;;;;;10.63;78.33;99863.38;229870;1191;138232;-72
2021/11/20 15:58:27;;;;;;;7.80;6.70;;;;;;;10.59;78.39;99861.94;230748;1191;140170;-70
2021/11/20 16:04:06;;;;;;;9.20;7.60;;;;;;;10.61;78.44;99857.14;230098;1191;140316;-72
2021/11/20 16:09:46;;;;;;;9.50;7.00;;;;;;;10.64;78.51;99848.77;230058;1191;138905;-70
2021/11/20 16:14:50;;;;;;;6.90;6.20;;;;;;;10.59;78.64;99842.33;228737;1191;139407;-72
2021/11/20 16:20:04;;;;;;;;;;;;;;;;;;;;;
2021/11/20 16:25:25;;;;;;;7.30;6.60;;;;;;;10.50;79.08;99831.60;229188;1190;139672;-70
2021/11/20 16:30:33;;;;;;;6.20;5.70;;;;;;;10.48;79.13;99824.35;230046;1190;138790;-72
2021/11/20 16:35:40;;;;;;;8.20;7.40;;;;;;;10.47;79.13;99827.15;229851;1190;140305;-71
2021/11/20 16:40:58;;;;;;;7.40;6.70;;;;;;;10.42;79.25;99819.80;229447;1191;139567;-71
2021/11/20 16:46:24;;;;;;;8.20;7.40;;;;;;;10.36;79.29;99819.02;228907;1191;139806;-72
2021/11/20 16:57:13;;;;;;;8.80;6.80;;;;;;;10.22;79.51;99801.46;228296;1193;138744;-70
2021/11/20 17:02:53;;;;;;;;;;;;;;;;;;;;;
2021/11/20 17:08:38;;;;;;;8.70;7.50;;;;;;;10.12;79.63;99793.32;230521;1184;139677;-72
2021/11/20 17:13:42;;;;;;;9.70;7.20;;;;;;;10.09;79.98;99789.11;230972;1191;139739;-72
2021/11/20 17:19:18;;;;;;;;;;;;;;;;;;;;;
2021/11/20 17:24:32;;;;;;;8.40;7.60;;;;;;;10.12;79.72;99784.33;231068;1191;141778;-72
2021/11/20 17:29:50;;;;;;;;;;;;;;;;;;;;;
2021/11/20 17:34:58;;;;;;;11.60;7.80;;;;;;;10.12;79.96;99785.16;231003;1191;139618;-71
2021/11/20 17:40:08;;;;;;;9.80;8.00;;;;;;;10.10;79.77;99776.13;229150;1191;140074;-72
2021/11/20 17:45:13;;;;;;;11.60;9.50;;;;;;;10.09;79.88;99773.81;228375;1182;139699;-71
2021/11/20 17:50:26;;;;;;;11.50;9.10;;;;;;;10.12;79.92;99769.25;229330;1191;139359;-72
2021/11/20 17:55:31;;;;;;;11.70;10.30;;;;;;;10.12;80.01;99764.92;230125;1190;139690;-72
2021/11/20 18:00:46;;;;;;;19.70;12.00;;;;;;;10.08;79.98;99762.94;230619;1191;140315;-73
2021/11/20 18:06:00;;;;;;;13.90;9.20;;;;;;;10.07;79.86;99753.27;229594;1190;140352;-73
2021/11/20 18:11:07;;;;;;;12.40;9.20;;;;;;;10.01;79.98;99746.68;229834;1191;141606;-72
2021/11/20 18:16:51;;;;;;;;;;;;;;;;;;;;;
2021/11/20 18:21:59;;;;;;;14.10;8.70;;;;;;;10.00;80.22;99734.41;229549;1190;139942;-72
2021/11/20 18:27:25;;;;;;;11.80;9.10;;;;;;;10.00;80.21;99731.22;230313;1190;140563;-70
2021/11/20 18:32:47;;;;;;;19.00;11.70;;;;;;;9.99;80.20;99733.48;229261;1191;138872;-71
2021/11/20 18:37:53;;;;;;;22.40;13.10;;;;;;;9.99;80.10;99722.04;229392;1191;140968;-72
2021/11/20 18:48:53;;;;;;;20.40;12.10;;;;;;;9.89;80.04;99704.35;228884;1190;140871;-70
2021/11/20 18:54:01;;;;;;;18.70;10.10;;;;;;;9.85;80.13;99711.41;230045;1192;140802;-70
2021/11/20 18:59:07;;;;;;;17.50;11.90;;;;;;;9.79;80.15;99706.84;229468;1192;139936;-70
2021/11/20 19:04:34;;;;;;;16.50;11.80;;;;;;;9.78;80.12;99695.33;228523;1190;139889;-69
2021/11/20 19:09:45;;;;;;;25.90;13.90;;;;;;;9.75;80.02;99693.63;230910;1191;139695;-71
2021/11/20 19:14:50;;;;;;;18.70;11.90;;;;;;;9.74;80.19;99691.68;230359;1192;139411;-71
2021/11/20 19:20:17;;;;;;;16.00;12.40;;;;;;;9.78;80.12;99683.46;230074;1191;140104;-70
2021/11/20 19:25:25;;;;;;;17.90;12.80;;;;;;;9.75;79.93;99674.08;229739;1190;138992;-72
2021/11/20 19:30:34;;;;;;;12.60;8.30;;;;;;;9.75;80.07;99673.39;230924;1191;141299;-72
2021/11/20 19:36:02;;;;;;;19.10;12.70;;;;;;;9.74;79.95;99670.50;231146;1190;139556;-72
2021/11/20 19:42:04;;;;;;;15.80;11.00;;;;;;;9.74;79.92;99665.38;230929;1190;139710;-72
2021/11/20 19:47:12;;;;;;;15.40;10.80;;;;;;;9.75;79.94;99653.07;230021;1192;140203;-71
2021/11/20 19:53:04;;;;;;;;;;;;;;;;;;;;;
2021/11/20 19:58:08;;;;;;;19.30;13.10;;;;;;;9.70;79.78;99645.91;230236;1191;139595;-70
2021/11/20 20:03:16;;;;;;;13.60;9.40;;;;;;;9.73;80.01;99643.44;230207;1191;140006;-69
2021/11/20 20:08:33;;;;;;;15.60;11.70;;;;;;;9.75;79.83;99635.21;228895;1191;142721;-70
2021/11/20 20:13:39;;;;;;;12.90;10.80;;;;;;;9.76;79.85;99632.91;229268;1192;140010;-70
2021/11/20 20:19:12;;;;;;;9.50;7.60;;;;;;;9.73;79.74;99635.05;228751;1190;141096;-69
2021/11/20 20:24:49;;;;;;;;;;;;;;;;;;;;;
2021/11/20 20:30:18;;;;;;;14.60;10.10;;;;;;;9.65;79.64;99627.80;229022;1190;141124;-73
2021/11/20 20:35:30;;;;;;;15.90;11.10;;;;;;;9.66;79.62;99628.29;229941;1190;140435;-72
2021/11/20 20:40:39;;;;;;;15.30;10.70;;;;;;;9.62;79.67;99623.68;230248;1191;138734;-73
2021/11/20 20:45:43;;;;;;;;;;;;;;;9.60;79.55;99611.32;229630;1190;140881;-72
2021/11/20 20:50:51;;;;;;;20.20;10.90;;;;;;;9.55;79.79;99602.64;230009;1192;125308;-72
2021/11/20 20:55:56;;;;;;;15.90;10.30;;;;;;;9.54;79.55;99595.48;230260;1184;139757;-74
2021/11/20 21:01:16;;;;;;;14.60;10.80;;;;;;;9.57;79.56;99587.83;229492;1192;161783;-70
2021/11/20 21:06:23;;;;;;;13.60;11.90;;;;;;;9.57;79.55;99581.88;230346;1192;140066;-74
2021/11/20 21:11:28;;;;;;;12.50;10.10;;;;;;;9.58;79.48;99578.02;230306;1191;140097;-74
2021/11/20 21:16:33;;;;;;;13.80;9.80;;;;;;;9.57;79.19;99570.43;229939;1192;139354;-76
2021/11/20 21:27:02;;;;;;;13.50;9.80;;;;;;;9.54;79.25;99562.65;230789;1192;140081;-72
2021/11/20 21:32:51;;;;;;;;;;;;;;;;;;;;;
2021/11/20 21:37:56;;;;;;;13.00;8.70;;;;;;;9.55;79.16;99558.95;230742;1192;139126;-78
2021/11/20 21:43:00;;;;;;;12.10;8.10;;;;;;;9.56;79.01;99560.20;230786;1192;140659;-79
2021/11/20 21:48:07;;;;;;;11.90;8.90;;;;;;;9.59;78.88;99558.39;230865;1192;139498;-74
2021/11/20 21:53:22;;;;;;;19.00;9.20;;;;;;;9.55;78.92;99553.30;229407;1190;140681;-78
2021/11/20 21:58:46;;;;;;;12.30;7.80;;;;;;;9.53;78.75;99547.89;229536;1192;139638;-75
2021/11/20 22:03:52;;;;;;;13.30;10.00;;;;;;;9.51;78.81;99537.04;229398;1192;139848;-76
2021/11/20 22:09:21;;;;;;;14.90;8.60;;;;;;;9.45;78.89;99532.08;229165;1190;140578;-73
2021/11/20 22:15:00;;;;;;;12.00;10.50;;;;;;;9.46;78.86;99528.17;229175;1192;141969;-71
2021/11/20 22:20:10;;;;;;;13.10;8.00;;;;;;;9.44;78.93;99518.54;229943;1190;232257;-71
2021/11/20 22:25:32;;;;;;;11.20;8.80;;;;;;;9.41;79.00;99508.15;228878;1192;139457;-73
2021/11/20 22:30:41;;;;;;;17.60;8.60;;;;;;;9.40;78.81;99505.42;230082;1190;140024;-74
2021/11/20 22:36:10;;;;;;;12.80;8.70;;;;;;;9.42;78.76;99494.57;229266;1190;139166;-74
2021/11/20 22:41:15;;;;;;;12.20;7.70;;;;;;;9.42;78.76;99486.74;229832;1190;139198;-72
2021/11/20 22:46:28;;;;;;;9.70;8.10;;;;;;;9.40;78.66;99479.83;230414;1190;139306;-74
2021/11/20 22:51:33;;;;;;;15.20;8.50;;;;;;;9.39;78.44;99473.80;230331;1192;139648;-75
2021/11/20 22:56:50;;;;;;;12.60;7.80;;;;;;;9.34;78.47;99461.60;230461;1192;139854;-75
2021/11/20 23:01:55;;;;;;;10.70;7.90;;;;;;;9.33;78.44;99452.42;230075;1191;140702;-72
2021/11/20 23:06:59;;;;;;;12.30;9.20;;;;;;;9.35;78.36;99446.16;229929;1190;138938;-72
2021/11/20 23:12:05;;;;;;;10.00;8.30;;;;;;;9.35;78.40;99444.02;229636;1192;139332;-69
2021/11/20 23:17:09;;;;;;;10.40;7.50;;;;;;;9.36;78.40;99440.45;229663;1192;140154;-72
2021/11/20 23:22:14;;;;;;;9.90;7.00;;;;;;;9.36;78.27;99437.71;230580;1192;141068;-71
2021/11/20 23:27:21;;;;;;;11.20;7.70;;;;;;;9.31;78.11;99426.58;230278;1190;140041;-71
2021/11/20 23:32:29;;;;;;;10.80;6.00;;;;;;;9.26;78.06;99423.54;231134;1192;139169;-72
2021/11/20 23:37:35;;;;;;;10.60;7.40;;;;;;;9.27;77.90;99421.86;230591;1191;140857;-70
2021/11/20 23:43:01;;;;;;;;;;;;;;;;;;;;;
2021/11/20 23:48:14;;;;;;;8.80;7.00;;;;;;;9.23;77.65;99423.00;230759;1191;140464;-74
2021/11/20 23:53:20;;;;;;;8.00;6.30;;;;;;;9.22;77.54;99418.20;230112;1191;141226;-72
2021/11/20 23:58:29;;;;;;;12.10;8.10;;;;;;;9.17;77.62;99411.51;229748;1192;139397;-69
